Garita, NM

12:47 AM MDT on August 31, 2014 (GMT -0600)
Conchas Dam | Change Station
CLOSE
Current Station
Personal Weather Station
Location: Conchas, NM
Elevation: 4268 ft
Nearby Weather Stations

Elev 4268 ft 35.36 °N, 104.22 °W | Updated 10 minutes ago

Partly Cloudy
Partly Cloudy
78.7 °F
Feels Like 79 °F
N
13.0
Wind Variable Wind from SSW
Gusts 29.0 mph

Today
High -- | Low -- °F
--% Chance of Precip.
Yesterday
High -- | Low -- °F
Precip. -- in
6:29 AM 7:26 PM
Waxing Crescent, 28% visible
Pressure 29.74 in
Visibility 10.0 miles
Clouds Clear
Heat Index 79 °F
Dew Point 46 °F
Humidity 31%
Rainfall -9999.00 in
Snow Depth Not available.
UV 0 out of 12
Pollen 8.70 out of 12
Air Quality Not available.
Flu Activity Not available.
METAR KTCC 310553Z AUTO 19020G28KT 10SM CLR 26/08 A2996 RMK AO2 PK WND 18028/0548 SLP070 T02610083 10350 20261 51007

More Conditions Fewer Conditions

Pressure 29.74 in
Visibility 10.0 miles
Clouds Clear
Heat Index 79 °F
Dew Point 46 °F
Humidity 31%
Rainfall -9999.00 in
Snow Depth Not available.
UV 0 out of 12
Pollen 8.70 out of 12
Air Quality Not available.
Flu Activity Not available.
METAR KTCC 310553Z AUTO 19020G28KT 10SM CLR 26/08 A2996 RMK AO2 PK WND 18028/0548 SLP070 T02610083 10350 20261 51007

More Conditions Fewer Conditions

10-Day Weather Forecast

Almanac

Astronomy

Aug. 31, 2014 Rise Set
Actual Time 6:29 AM MDT 7:26 PM MDT
Civil Twilight 6:03 AM MDT 7:52 PM MDT
Nautical Twilight 5:32 AM MDT 8:22 PM MDT
Astronomical Twilight 5:00 AM MDT 8:54 PM MDT
Moon 12:05 PM MDT 10:56 PM MDT
Length of Visible Light 13h 48m
Length of Day
12h 56m
Tomorrow will be 2m 8s shorter.
Waxing Crescent, 28% of the Moon is Illuminated
Today
Waxing Crescent
Sep 2
First Quarter
Sep 8
Full
Sep 15
Last Quarter
Sep 24
New

Today's Extremes

State Highs State Lows

Community

WunderPhotos

Upload Photos

1,748,800 photos uploaded!

Nearby

Snow Depth

Station Depth Elevation
Wesner Springs 1 in 11120 ft
Santa Fe 0 in 11445 ft
Gallegos Peak 0 in 9800 ft
Tolby 0 in 10180 ft
Quemazon 1 in 9500 ft

Earthquake Activity

City Distance Mag. Time & Date
No recent earthquake activity has been reported nearby.
Minimum magnitude displayed is 2.5.

Coastal Water Temperatures

Place Temperature
No Stations Reporting

Nearby Weather Stations